sensor_id;sensor_type;location;lat;lon;timestamp;temperature;humidity
1129;DHT22;553;51.038;7.216;2022-11-24T00:01:12;7.10;99.90
1129;DHT22;553;51.038;7.216;2022-11-24T00:03:41;7.10;99.90
1129;DHT22;553;51.038;7.216;2022-11-24T00:06:11;7.20;99.90
1129;DHT22;553;51.038;7.216;2022-11-24T00:08:40;7.30;99.90
1129;DHT22;553;51.038;7.216;2022-11-24T00:11:17;7.20;99.90
1129;DHT22;553;51.038;7.216;2022-11-24T00:13:44;7.30;99.90
1129;DHT22;553;51.038;7.216;2022-11-24T00:16:16;7.30;99.90
1129;DHT22;553;51.038;7.216;2022-11-24T00:18:45;7.30;99.90
1129;DHT22;553;51.038;7.216;2022-11-24T00:21:13;7.40;99.90
1129;DHT22;553;51.038;7.216;2022-11-24T00:23:40;7.40;99.90
1129;DHT22;553;51.038;7.216;2022-11-24T00:26:15;7.30;99.90
1129;DHT22;553;51.038;7.216;2022-11-24T00:28:43;7.30;99.90
1129;DHT22;553;51.038;7.216;2022-11-24T00:31:34;7.20;99.90
1129;DHT22;553;51.038;7.216;2022-11-24T00:34:04;7.20;99.90
1129;DHT22;553;51.038;7.216;2022-11-24T00:36:33;7.20;99.90
1129;DHT22;553;51.038;7.216;2022-11-24T00:39:06;7.20;99.90
1129;DHT22;553;51.038;7.216;2022-11-24T00:41:33;7.30;99.90
1129;DHT22;553;51.038;7.216;2022-11-24T00:44:00;7.30;99.90
1129;DHT22;553;51.038;7.216;2022-11-24T00:46:27;7.30;99.90
1129;DHT22;553;51.038;7.216;2022-11-24T00:48:54;7.20;99.90
1129;DHT22;553;51.038;7.216;2022-11-24T00:51:23;7.30;99.90
1129;DHT22;553;51.038;7.216;2022-11-24T00:53:51;7.30;99.90
1129;DHT22;553;51.038;7.216;2022-11-24T00:56:18;7.30;99.90
1129;DHT22;553;51.038;7.216;2022-11-24T00:58:45;7.30;99.90
1129;DHT22;553;51.038;7.216;2022-11-24T01:01:13;7.30;99.90
1129;DHT22;553;51.038;7.216;2022-11-24T01:03:40;7.30;99.90
1129;DHT22;553;51.038;7.216;2022-11-24T01:06:11;7.20;99.90
1129;DHT22;553;51.038;7.216;2022-11-24T01:08:38;7.20;99.90
1129;DHT22;553;51.038;7.216;2022-11-24T01:11:11;7.20;99.90
1129;DHT22;553;51.038;7.216;2022-11-24T01:13:40;7.20;99.90
1129;DHT22;553;51.038;7.216;2022-11-24T01:18:44;7.20;99.90
1129;DHT22;553;51.038;7.216;2022-11-24T01:21:11;7.10;99.90
1129;DHT22;553;51.038;7.216;2022-11-24T01:23:38;7.00;99.90
1129;DHT22;553;51.038;7.216;2022-11-24T01:26:06;7.00;99.90
1129;DHT22;553;51.038;7.216;2022-11-24T01:28:34;7.00;99.90
1129;DHT22;553;51.038;7.216;2022-11-24T01:31:04;7.00;99.90
1129;DHT22;553;51.038;7.216;2022-11-24T01:33:32;7.00;99.90
1129;DHT22;553;51.038;7.216;2022-11-24T01:36:00;7.00;99.90
1129;DHT22;553;51.038;7.216;2022-11-24T01:38:27;6.90;99.90
1129;DHT22;553;51.038;7.216;2022-11-24T01:41:06;6.90;99.90
1129;DHT22;553;51.038;7.216;2022-11-24T01:43:33;6.90;99.90
1129;DHT22;553;51.038;7.216;2022-11-24T01:49:08;7.00;99.90
1129;DHT22;553;51.038;7.216;2022-11-24T01:52:00;7.00;99.90
1129;DHT22;553;51.038;7.216;2022-11-24T01:54:32;7.10;99.90
1129;DHT22;553;51.038;7.216;2022-11-24T01:57:09;7.10;99.90
1129;DHT22;553;51.038;7.216;2022-11-24T01:59:38;7.20;99.90
1129;DHT22;553;51.038;7.216;2022-11-24T02:02:05;7.30;99.90
1129;DHT22;553;51.038;7.216;2022-11-24T02:04:32;7.30;99.90
1129;DHT22;553;51.038;7.216;2022-11-24T02:07:02;7.40;99.90
1129;DHT22;553;51.038;7.216;2022-11-24T02:09:43;7.50;99.90
1129;DHT22;553;51.038;7.216;2022-11-24T02:12:11;7.50;99.90
1129;DHT22;553;51.038;7.216;2022-11-24T02:14:39;7.60;99.90
1129;DHT22;553;51.038;7.216;2022-11-24T02:17:07;7.60;99.90
1129;DHT22;553;51.038;7.216;2022-11-24T02:19:41;7.60;99.90
1129;DHT22;553;51.038;7.216;2022-11-24T02:22:30;7.60;99.90
1129;DHT22;553;51.038;7.216;2022-11-24T02:27:35;7.80;99.90
1129;DHT22;553;51.038;7.216;2022-11-24T02:30:02;7.80;99.90
1129;DHT22;553;51.038;7.216;2022-11-24T02:32:29;7.80;99.90
1129;DHT22;553;51.038;7.216;2022-11-24T02:35:01;7.80;99.90
1129;DHT22;553;51.038;7.216;2022-11-24T02:37:28;7.80;99.90
1129;DHT22;553;51.038;7.216;2022-11-24T02:39:55;7.90;99.90
1129;DHT22;553;51.038;7.216;2022-11-24T02:42:23;8.00;99.90
1129;DHT22;553;51.038;7.216;2022-11-24T02:44:54;8.00;99.90
1129;DHT22;553;51.038;7.216;2022-11-24T02:47:22;8.00;99.90
1129;DHT22;553;51.038;7.216;2022-11-24T02:49:48;8.00;99.90
1129;DHT22;553;51.038;7.216;2022-11-24T02:52:15;7.90;99.90
1129;DHT22;553;51.038;7.216;2022-11-24T02:54:41;8.00;99.90
1129;DHT22;553;51.038;7.216;2022-11-24T02:57:09;8.00;99.90
1129;DHT22;553;51.038;7.216;2022-11-24T02:59:35;8.00;99.90
1129;DHT22;553;51.038;7.216;2022-11-24T03:02:03;8.00;99.90
1129;DHT22;553;51.038;7.216;2022-11-24T03:04:29;8.00;99.90
1129;DHT22;553;51.038;7.216;2022-11-24T03:06:56;8.10;99.90
1129;DHT22;553;51.038;7.216;2022-11-24T03:09:23;8.10;99.90
1129;DHT22;553;51.038;7.216;2022-11-24T03:11:50;8.10;99.90
1129;DHT22;553;51.038;7.216;2022-11-24T03:14:17;8.00;99.90
1129;DHT22;553;51.038;7.216;2022-11-24T03:16:43;8.00;99.90
1129;DHT22;553;51.038;7.216;2022-11-24T03:19:10;7.90;99.90
1129;DHT22;553;51.038;7.216;2022-11-24T03:21:37;7.90;99.90
1129;DHT22;553;51.038;7.216;2022-11-24T03:24:04;7.90;99.90
1129;DHT22;553;51.038;7.216;2022-11-24T03:26:32;7.90;99.90
1129;DHT22;553;51.038;7.216;2022-11-24T03:29:00;7.90;99.90
1129;DHT22;553;51.038;7.216;2022-11-24T03:31:27;7.90;99.90
1129;DHT22;553;51.038;7.216;2022-11-24T03:33:53;7.90;99.90
1129;DHT22;553;51.038;7.216;2022-11-24T03:36:20;8.00;99.90
1129;DHT22;553;51.038;7.216;2022-11-24T03:38:47;8.00;99.90
1129;DHT22;553;51.038;7.216;2022-11-24T03:41:13;8.00;99.90
1129;DHT22;553;51.038;7.216;2022-11-24T03:43:40;8.00;99.90
1129;DHT22;553;51.038;7.216;2022-11-24T03:46:10;8.00;99.90
1129;DHT22;553;51.038;7.216;2022-11-24T03:48:38;8.00;99.90
1129;DHT22;553;51.038;7.216;2022-11-24T03:51:05;8.00;99.90
1129;DHT22;553;51.038;7.216;2022-11-24T03:53:32;8.00;99.90
1129;DHT22;553;51.038;7.216;2022-11-24T03:55:59;8.10;99.90
1129;DHT22;553;51.038;7.216;2022-11-24T03:58:28;8.10;99.90
1129;DHT22;553;51.038;7.216;2022-11-24T04:00:55;8.00;99.90
1129;DHT22;553;51.038;7.216;2022-11-24T04:03:23;8.00;99.90
1129;DHT22;553;51.038;7.216;2022-11-24T04:05:50;8.10;99.90
1129;DHT22;553;51.038;7.216;2022-11-24T04:08:17;8.10;99.90
1129;DHT22;553;51.038;7.216;2022-11-24T04:10:44;8.10;99.90
1129;DHT22;553;51.038;7.216;2022-11-24T04:13:15;8.10;99.90
1129;DHT22;553;51.038;7.216;2022-11-24T04:15:43;8.10;99.90
1129;DHT22;553;51.038;7.216;2022-11-24T04:18:11;8.10;99.90
1129;DHT22;553;51.038;7.216;2022-11-24T04:20:39;8.20;99.90
1129;DHT22;553;51.038;7.216;2022-11-24T04:23:06;8.30;99.90
1129;DHT22;553;51.038;7.216;2022-11-24T04:25:33;8.30;99.90
1129;DHT22;553;51.038;7.216;2022-11-24T04:28:00;8.30;99.90
1129;DHT22;553;51.038;7.216;2022-11-24T04:30:28;8.40;99.90
1129;DHT22;553;51.038;7.216;2022-11-24T04:32:55;8.40;99.90
1129;DHT22;553;51.038;7.216;2022-11-24T04:35:22;8.40;99.90
1129;DHT22;553;51.038;7.216;2022-11-24T04:37:49;8.50;99.90
1129;DHT22;553;51.038;7.216;2022-11-24T04:40:16;8.50;99.90
1129;DHT22;553;51.038;7.216;2022-11-24T04:42:43;8.50;99.90
1129;DHT22;553;51.038;7.216;2022-11-24T04:45:09;8.50;99.90
1129;DHT22;553;51.038;7.216;2022-11-24T04:47:37;8.50;99.90
1129;DHT22;553;51.038;7.216;2022-11-24T04:50:04;8.40;99.90
1129;DHT22;553;51.038;7.216;2022-11-24T04:52:33;8.50;99.90
1129;DHT22;553;51.038;7.216;2022-11-24T04:54:59;8.40;99.90
1129;DHT22;553;51.038;7.216;2022-11-24T04:57:26;8.50;99.90
1129;DHT22;553;51.038;7.216;2022-11-24T04:59:54;8.50;99.90
1129;DHT22;553;51.038;7.216;2022-11-24T05:02:21;8.50;99.90
1129;DHT22;553;51.038;7.216;2022-11-24T05:04:48;8.60;99.90
1129;DHT22;553;51.038;7.216;2022-11-24T05:07:16;8.70;99.90
1129;DHT22;553;51.038;7.216;2022-11-24T05:09:45;8.70;99.90
1129;DHT22;553;51.038;7.216;2022-11-24T05:12:31;8.80;99.90
1129;DHT22;553;51.038;7.216;2022-11-24T05:14:58;8.70;99.90
1129;DHT22;553;51.038;7.216;2022-11-24T05:17:30;8.80;99.90
1129;DHT22;553;51.038;7.216;2022-11-24T05:19:57;8.80;99.90
1129;DHT22;553;51.038;7.216;2022-11-24T05:22:24;8.80;99.90
1129;DHT22;553;51.038;7.216;2022-11-24T05:24:50;8.80;99.90
1129;DHT22;553;51.038;7.216;2022-11-24T05:27:17;8.90;99.90
1129;DHT22;553;51.038;7.216;2022-11-24T05:29:44;8.80;99.90
1129;DHT22;553;51.038;7.216;2022-11-24T05:32:11;8.90;99.90
1129;DHT22;553;51.038;7.216;2022-11-24T05:34:38;8.80;99.90
1129;DHT22;553;51.038;7.216;2022-11-24T05:37:04;8.90;99.90
1129;DHT22;553;51.038;7.216;2022-11-24T05:39:32;8.80;99.90
1129;DHT22;553;51.038;7.216;2022-11-24T05:42:04;8.90;99.90
1129;DHT22;553;51.038;7.216;2022-11-24T05:44:51;8.80;99.90
1129;DHT22;553;51.038;7.216;2022-11-24T05:47:19;8.80;99.90
1129;DHT22;553;51.038;7.216;2022-11-24T05:49:46;8.90;99.90
1129;DHT22;553;51.038;7.216;2022-11-24T05:52:13;8.90;99.90
1129;DHT22;553;51.038;7.216;2022-11-24T05:54:40;8.90;99.90
1129;DHT22;553;51.038;7.216;2022-11-24T05:57:07;9.00;99.90
1129;DHT22;553;51.038;7.216;2022-11-24T05:59:34;9.00;99.90
1129;DHT22;553;51.038;7.216;2022-11-24T06:02:00;9.00;99.90
1129;DHT22;553;51.038;7.216;2022-11-24T06:04:27;9.00;99.90
1129;DHT22;553;51.038;7.216;2022-11-24T06:06:54;9.00;99.90
1129;DHT22;553;51.038;7.216;2022-11-24T06:09:20;9.10;99.90
1129;DHT22;553;51.038;7.216;2022-11-24T06:11:48;9.10;99.90
1129;DHT22;553;51.038;7.216;2022-11-24T06:14:14;9.10;99.90
1129;DHT22;553;51.038;7.216;2022-11-24T06:16:41;9.00;99.90
1129;DHT22;553;51.038;7.216;2022-11-24T06:19:10;9.00;99.90
1129;DHT22;553;51.038;7.216;2022-11-24T06:21:37;9.00;99.90
1129;DHT22;553;51.038;7.216;2022-11-24T06:24:04;9.00;99.90
1129;DHT22;553;51.038;7.216;2022-11-24T06:26:31;9.00;99.90
1129;DHT22;553;51.038;7.216;2022-11-24T06:28:58;9.00;99.90
1129;DHT22;553;51.038;7.216;2022-11-24T06:31:25;9.00;99.90
1129;DHT22;553;51.038;7.216;2022-11-24T06:33:52;8.80;99.90
1129;DHT22;553;51.038;7.216;2022-11-24T06:36:19;8.80;99.90
1129;DHT22;553;51.038;7.216;2022-11-24T06:38:45;8.90;99.90
1129;DHT22;553;51.038;7.216;2022-11-24T06:41:14;8.80;99.90
1129;DHT22;553;51.038;7.216;2022-11-24T06:43:41;8.70;99.90
1129;DHT22;553;51.038;7.216;2022-11-24T06:46:07;8.70;99.90
1129;DHT22;553;51.038;7.216;2022-11-24T06:48:34;8.70;99.90
1129;DHT22;553;51.038;7.216;2022-11-24T06:51:04;8.80;99.90
1129;DHT22;553;51.038;7.216;2022-11-24T06:53:35;8.80;99.90
1129;DHT22;553;51.038;7.216;2022-11-24T06:56:07;8.80;99.90
1129;DHT22;553;51.038;7.216;2022-11-24T06:58:45;8.70;99.90
1129;DHT22;553;51.038;7.216;2022-11-24T07:01:14;8.80;99.90
1129;DHT22;553;51.038;7.216;2022-11-24T07:03:41;8.80;99.90
1129;DHT22;553;51.038;7.216;2022-11-24T07:06:08;8.70;99.90
1129;DHT22;553;51.038;7.216;2022-11-24T07:08:34;8.70;99.90
1129;DHT22;553;51.038;7.216;2022-11-24T07:11:06;8.60;99.90
1129;DHT22;553;51.038;7.216;2022-11-24T07:13:33;8.70;99.90
1129;DHT22;553;51.038;7.216;2022-11-24T07:16:18;8.70;99.90
1129;DHT22;553;51.038;7.216;2022-11-24T07:18:46;8.70;99.90
1129;DHT22;553;51.038;7.216;2022-11-24T07:21:14;8.70;99.90
1129;DHT22;553;51.038;7.216;2022-11-24T07:23:40;8.70;99.90
1129;DHT22;553;51.038;7.216;2022-11-24T07:26:08;8.60;99.90
1129;DHT22;553;51.038;7.216;2022-11-24T07:28:36;8.60;99.90
1129;DHT22;553;51.038;7.216;2022-11-24T07:31:11;8.60;99.90
1129;DHT22;553;51.038;7.216;2022-11-24T07:33:39;8.60;99.90
1129;DHT22;553;51.038;7.216;2022-11-24T07:36:06;8.50;99.90
1129;DHT22;553;51.038;7.216;2022-11-24T07:38:34;8.60;99.90
1129;DHT22;553;51.038;7.216;2022-11-24T07:41:03;8.60;99.90
1129;DHT22;553;51.038;7.216;2022-11-24T07:43:31;8.60;99.90
1129;DHT22;553;51.038;7.216;2022-11-24T07:45:58;8.60;99.90
1129;DHT22;553;51.038;7.216;2022-11-24T07:48:25;8.70;99.90
1129;DHT22;553;51.038;7.216;2022-11-24T07:50:52;8.70;99.90
1129;DHT22;553;51.038;7.216;2022-11-24T07:53:21;8.60;99.90
1129;DHT22;553;51.038;7.216;2022-11-24T07:55:52;8.60;99.90
1129;DHT22;553;51.038;7.216;2022-11-24T07:58:21;8.60;99.90
1129;DHT22;553;51.038;7.216;2022-11-24T08:00:48;8.70;99.90
1129;DHT22;553;51.038;7.216;2022-11-24T08:03:15;8.70;99.90
1129;DHT22;553;51.038;7.216;2022-11-24T08:05:41;8.60;99.90
1129;DHT22;553;51.038;7.216;2022-11-24T08:08:29;8.70;99.90
1129;DHT22;553;51.038;7.216;2022-11-24T08:11:06;8.70;99.90
1129;DHT22;553;51.038;7.216;2022-11-24T08:13:34;8.70;99.90
1129;DHT22;553;51.038;7.216;2022-11-24T08:16:06;8.70;99.90
1129;DHT22;553;51.038;7.216;2022-11-24T08:18:34;8.60;99.90
1129;DHT22;553;51.038;7.216;2022-11-24T08:21:02;8.70;99.90
1129;DHT22;553;51.038;7.216;2022-11-24T08:23:29;8.60;99.90
1129;DHT22;553;51.038;7.216;2022-11-24T08:25:56;8.70;99.90
1129;DHT22;553;51.038;7.216;2022-11-24T08:28:26;8.80;99.90
1129;DHT22;553;51.038;7.216;2022-11-24T08:30:52;8.70;99.90
1129;DHT22;553;51.038;7.216;2022-11-24T08:33:19;8.70;99.90
1129;DHT22;553;51.038;7.216;2022-11-24T08:35:46;8.80;99.90
1129;DHT22;553;51.038;7.216;2022-11-24T08:38:12;8.80;99.90
1129;DHT22;553;51.038;7.216;2022-11-24T08:40:39;8.80;99.90
1129;DHT22;553;51.038;7.216;2022-11-24T08:43:05;8.90;99.90
1129;DHT22;553;51.038;7.216;2022-11-24T08:45:32;8.90;99.90
1129;DHT22;553;51.038;7.216;2022-11-24T08:48:07;8.90;99.90
1129;DHT22;553;51.038;7.216;2022-11-24T08:50:35;8.80;99.90
1129;DHT22;553;51.038;7.216;2022-11-24T08:53:02;8.90;99.90
1129;DHT22;553;51.038;7.216;2022-11-24T08:55:29;8.80;99.90
1129;DHT22;553;51.038;7.216;2022-11-24T08:57:56;8.80;99.90
1129;DHT22;553;51.038;7.216;2022-11-24T09:00:22;8.80;99.90
1129;DHT22;553;51.038;7.216;2022-11-24T09:02:54;8.80;99.90
1129;DHT22;553;51.038;7.216;2022-11-24T09:05:22;8.80;99.90
1129;DHT22;553;51.038;7.216;2022-11-24T09:08:08;8.80;99.90
1129;DHT22;553;51.038;7.216;2022-11-24T09:10:35;8.90;99.90
1129;DHT22;553;51.038;7.216;2022-11-24T09:13:02;8.80;99.90
1129;DHT22;553;51.038;7.216;2022-11-24T09:15:29;8.90;99.90
1129;DHT22;553;51.038;7.216;2022-11-24T09:17:56;8.90;99.90
1129;DHT22;553;51.038;7.216;2022-11-24T09:20:23;8.80;99.90
1129;DHT22;553;51.038;7.216;2022-11-24T09:22:49;8.80;99.90
1129;DHT22;553;51.038;7.216;2022-11-24T09:25:16;8.80;99.90
1129;DHT22;553;51.038;7.216;2022-11-24T09:27:43;8.90;99.90
1129;DHT22;553;51.038;7.216;2022-11-24T09:30:10;8.90;99.90
1129;DHT22;553;51.038;7.216;2022-11-24T09:32:37;9.00;99.90
1129;DHT22;553;51.038;7.216;2022-11-24T09:35:04;9.00;99.90
1129;DHT22;553;51.038;7.216;2022-11-24T09:37:31;9.00;99.90
1129;DHT22;553;51.038;7.216;2022-11-24T09:39:58;9.00;99.90
1129;DHT22;553;51.038;7.216;2022-11-24T09:42:38;9.00;99.90
1129;DHT22;553;51.038;7.216;2022-11-24T09:48:41;9.00;99.90
1129;DHT22;553;51.038;7.216;2022-11-24T09:51:11;9.00;99.90
1129;DHT22;553;51.038;7.216;2022-11-24T09:53:47;9.10;99.90
1129;DHT22;553;51.038;7.216;2022-11-24T09:56:21;9.10;99.90
1129;DHT22;553;51.038;7.216;2022-11-24T09:59:02;9.10;99.90
1129;DHT22;553;51.038;7.216;2022-11-24T10:01:33;9.20;99.90
1129;DHT22;553;51.038;7.216;2022-11-24T10:04:00;9.20;99.90
1129;DHT22;553;51.038;7.216;2022-11-24T10:06:43;9.20;99.90
1129;DHT22;553;51.038;7.216;2022-11-24T10:18:10;12.30;99.90
1129;DHT22;553;51.038;7.216;2022-11-24T10:26:37;10.50;99.90
1129;DHT22;553;51.038;7.216;2022-11-24T10:31:44;10.10;99.90
1129;DHT22;553;51.038;7.216;2022-11-24T10:34:18;9.90;99.90
1129;DHT22;553;51.038;7.216;2022-11-24T10:39:31;9.80;99.90
1129;DHT22;553;51.038;7.216;2022-11-24T10:42:22;9.70;99.90
1129;DHT22;553;51.038;7.216;2022-11-24T10:45:13;9.80;99.90
1129;DHT22;553;51.038;7.216;2022-11-24T10:47:41;9.80;99.90
1129;DHT22;553;51.038;7.216;2022-11-24T10:50:26;9.80;99.90
1129;DHT22;553;51.038;7.216;2022-11-24T10:58:23;10.10;99.90
1129;DHT22;553;51.038;7.216;2022-11-24T11:00:53;10.10;99.90
1129;DHT22;553;51.038;7.216;2022-11-24T11:03:22;10.10;99.90
1129;DHT22;553;51.038;7.216;2022-11-24T11:06:00;10.10;99.90
1129;DHT22;553;51.038;7.216;2022-11-24T11:08:30;10.10;99.90
1129;DHT22;553;51.038;7.216;2022-11-24T11:14:00;10.30;99.90
1129;DHT22;553;51.038;7.216;2022-11-24T11:19:34;10.40;99.90
1129;DHT22;553;51.038;7.216;2022-11-24T11:22:27;10.40;99.90
1129;DHT22;553;51.038;7.216;2022-11-24T11:25:05;10.50;99.90
1129;DHT22;553;51.038;7.216;2022-11-24T11:27:32;10.50;99.90
1129;DHT22;553;51.038;7.216;2022-11-24T11:30:17;10.50;99.90
1129;DHT22;553;51.038;7.216;2022-11-24T11:33:19;10.40;99.90
1129;DHT22;553;51.038;7.216;2022-11-24T11:36:08;10.40;99.90
1129;DHT22;553;51.038;7.216;2022-11-24T11:38:38;10.50;99.90
1129;DHT22;553;51.038;7.216;2022-11-24T11:41:08;10.60;99.90
1129;DHT22;553;51.038;7.216;2022-11-24T11:43:40;10.70;99.90
1129;DHT22;553;51.038;7.216;2022-11-24T11:48:37;10.80;99.90
1129;DHT22;553;51.038;7.216;2022-11-24T11:53:59;10.90;99.90
1129;DHT22;553;51.038;7.216;2022-11-24T11:56:30;10.90;99.90
1129;DHT22;553;51.038;7.216;2022-11-24T11:59:17;10.80;99.90
1129;DHT22;553;51.038;7.216;2022-11-24T12:04:52;10.90;99.90
1129;DHT22;553;51.038;7.216;2022-11-24T12:07:52;11.00;99.90
1129;DHT22;553;51.038;7.216;2022-11-24T12:10:49;11.00;99.90
1129;DHT22;553;51.038;7.216;2022-11-24T12:13:40;10.90;99.90
1129;DHT22;553;51.038;7.216;2022-11-24T12:16:54;10.90;99.90
1129;DHT22;553;51.038;7.216;2022-11-24T12:19:31;10.80;99.90
1129;DHT22;553;51.038;7.216;2022-11-24T12:22:23;10.80;99.90
1129;DHT22;553;51.038;7.216;2022-11-24T12:25:13;10.90;99.90
1129;DHT22;553;51.038;7.216;2022-11-24T12:30:21;11.10;99.90
1129;DHT22;553;51.038;7.216;2022-11-24T12:33:15;11.20;99.90
1129;DHT22;553;51.038;7.216;2022-11-24T12:36:06;11.20;99.90
1129;DHT22;553;51.038;7.216;2022-11-24T12:39:00;11.30;99.90
1129;DHT22;553;51.038;7.216;2022-11-24T12:47:30;11.40;99.90
1129;DHT22;553;51.038;7.216;2022-11-24T12:50:13;11.40;99.90
1129;DHT22;553;51.038;7.216;2022-11-24T12:53:17;11.40;99.90
1129;DHT22;553;51.038;7.216;2022-11-24T12:55:45;11.50;99.80
1129;DHT22;553;51.038;7.216;2022-11-24T13:01:32;11.60;99.80
1129;DHT22;553;51.038;7.216;2022-11-24T13:06:43;11.60;98.80
1129;DHT22;553;51.038;7.216;2022-11-24T13:09:15;11.70;98.50
1129;DHT22;553;51.038;7.216;2022-11-24T13:11:50;11.70;98.20
1129;DHT22;553;51.038;7.216;2022-11-24T13:22:55;11.60;99.10
1129;DHT22;553;51.038;7.216;2022-11-24T13:25:24;11.70;98.90
1129;DHT22;553;51.038;7.216;2022-11-24T13:27:52;11.70;97.80
1129;DHT22;553;51.038;7.216;2022-11-24T13:33:17;11.70;98.40
1129;DHT22;553;51.038;7.216;2022-11-24T13:47:00;11.60;99.00
1129;DHT22;553;51.038;7.216;2022-11-24T13:49:42;11.50;98.50
1129;DHT22;553;51.038;7.216;2022-11-24T13:57:39;11.80;98.40
1129;DHT22;553;51.038;7.216;2022-11-24T14:02:52;11.70;98.00
1129;DHT22;553;51.038;7.216;2022-11-24T14:05:22;12.00;98.30
1129;DHT22;553;51.038;7.216;2022-11-24T14:07:52;11.90;98.10
1129;DHT22;553;51.038;7.216;2022-11-24T14:10:23;12.00;97.00
1129;DHT22;553;51.038;7.216;2022-11-24T14:16:11;11.70;97.10
1129;DHT22;553;51.038;7.216;2022-11-24T14:18:45;11.70;97.30
1129;DHT22;553;51.038;7.216;2022-11-24T14:21:27;11.70;97.70
1129;DHT22;553;51.038;7.216;2022-11-24T14:23:58;11.70;97.80
1129;DHT22;553;51.038;7.216;2022-11-24T14:26:32;11.70;97.40
1129;DHT22;553;51.038;7.216;2022-11-24T14:29:06;11.70;97.40
1129;DHT22;553;51.038;7.216;2022-11-24T14:31:33;11.60;97.30
1129;DHT22;553;51.038;7.216;2022-11-24T14:34:16;11.60;97.70
1129;DHT22;553;51.038;7.216;2022-11-24T14:36:43;11.70;97.80
1129;DHT22;553;51.038;7.216;2022-11-24T14:39:15;12.20;98.80
1129;DHT22;553;51.038;7.216;2022-11-24T14:41:56;12.00;96.50
1129;DHT22;553;51.038;7.216;2022-11-24T14:44:27;12.00;96.70
1129;DHT22;553;51.038;7.216;2022-11-24T14:47:03;11.80;96.80
1129;DHT22;553;51.038;7.216;2022-11-24T14:49:32;11.70;97.10
1129;DHT22;553;51.038;7.216;2022-11-24T14:52:02;11.70;97.70
1129;DHT22;553;51.038;7.216;2022-11-24T14:54:29;11.70;98.00
1129;DHT22;553;51.038;7.216;2022-11-24T14:57:04;11.60;97.70
1129;DHT22;553;51.038;7.216;2022-11-24T14:59:33;11.60;98.30
1129;DHT22;553;51.038;7.216;2022-11-24T15:02:01;11.60;98.50
1129;DHT22;553;51.038;7.216;2022-11-24T15:04:30;11.50;98.50
1129;DHT22;553;51.038;7.216;2022-11-24T15:07:27;11.40;99.00
1129;DHT22;553;51.038;7.216;2022-11-24T15:09:59;11.30;99.60
1129;DHT22;553;51.038;7.216;2022-11-24T15:12:38;11.30;99.90
1129;DHT22;553;51.038;7.216;2022-11-24T15:17:52;10.90;99.50
1129;DHT22;553;51.038;7.216;2022-11-24T15:25:54;10.70;99.90
1129;DHT22;553;51.038;7.216;2022-11-24T15:28:22;10.70;99.90
1129;DHT22;553;51.038;7.216;2022-11-24T15:33:26;10.40;99.90
1129;DHT22;553;51.038;7.216;2022-11-24T15:35:53;10.30;99.90
1129;DHT22;553;51.038;7.216;2022-11-24T15:38:20;10.20;99.90
1129;DHT22;553;51.038;7.216;2022-11-24T15:40:49;10.10;99.90
1129;DHT22;553;51.038;7.216;2022-11-24T15:43:29;10.10;99.90
1129;DHT22;553;51.038;7.216;2022-11-24T15:45:57;10.10;99.90
1129;DHT22;553;51.038;7.216;2022-11-24T15:48:25;10.10;99.90
1129;DHT22;553;51.038;7.216;2022-11-24T15:50:52;10.00;99.90
1129;DHT22;553;51.038;7.216;2022-11-24T15:53:29;10.00;99.90
1129;DHT22;553;51.038;7.216;2022-11-24T15:55:59;10.00;99.90
1129;DHT22;553;51.038;7.216;2022-11-24T15:58:26;9.90;99.90
1129;DHT22;553;51.038;7.216;2022-11-24T16:00:52;9.90;99.90
1129;DHT22;553;51.038;7.216;2022-11-24T16:03:19;10.00;99.90
1129;DHT22;553;51.038;7.216;2022-11-24T16:06:11;10.00;99.90
1129;DHT22;553;51.038;7.216;2022-11-24T16:08:45;10.00;99.90
1129;DHT22;553;51.038;7.216;2022-11-24T16:11:11;9.80;99.90
1129;DHT22;553;51.038;7.216;2022-11-24T16:13:39;9.90;99.90
1129;DHT22;553;51.038;7.216;2022-11-24T16:16:06;9.90;99.90
1129;DHT22;553;51.038;7.216;2022-11-24T16:18:32;9.80;99.90
1129;DHT22;553;51.038;7.216;2022-11-24T16:21:00;9.80;99.90
1129;DHT22;553;51.038;7.216;2022-11-24T16:23:27;9.80;99.90
1129;DHT22;553;51.038;7.216;2022-11-24T16:25:54;9.70;99.90
1129;DHT22;553;51.038;7.216;2022-11-24T16:28:20;9.70;99.90
1129;DHT22;553;51.038;7.216;2022-11-24T16:30:48;9.70;99.90
1129;DHT22;553;51.038;7.216;2022-11-24T16:33:15;9.70;99.90
1129;DHT22;553;51.038;7.216;2022-11-24T16:35:45;9.50;99.90
1129;DHT22;553;51.038;7.216;2022-11-24T16:38:16;9.40;99.90
1129;DHT22;553;51.038;7.216;2022-11-24T16:40:43;9.40;99.90
1129;DHT22;553;51.038;7.216;2022-11-24T16:43:10;9.30;99.90
1129;DHT22;553;51.038;7.216;2022-11-24T16:45:37;9.30;99.90
1129;DHT22;553;51.038;7.216;2022-11-24T16:48:10;9.10;99.90
1129;DHT22;553;51.038;7.216;2022-11-24T16:50:37;9.00;99.90
1129;DHT22;553;51.038;7.216;2022-11-24T16:53:03;8.90;99.90
1129;DHT22;553;51.038;7.216;2022-11-24T16:55:30;8.90;99.90
1129;DHT22;553;51.038;7.216;2022-11-24T16:57:57;8.80;99.90
1129;DHT22;553;51.038;7.216;2022-11-24T17:00:23;8.90;99.90
1129;DHT22;553;51.038;7.216;2022-11-24T17:02:50;8.90;99.90
1129;DHT22;553;51.038;7.216;2022-11-24T17:05:17;8.90;99.90
1129;DHT22;553;51.038;7.216;2022-11-24T17:07:43;8.90;99.90
1129;DHT22;553;51.038;7.216;2022-11-24T17:10:10;8.80;99.90
1129;DHT22;553;51.038;7.216;2022-11-24T17:12:37;8.90;99.90
1129;DHT22;553;51.038;7.216;2022-11-24T17:15:04;8.90;99.90
1129;DHT22;553;51.038;7.216;2022-11-24T17:17:51;8.80;99.90
1129;DHT22;553;51.038;7.216;2022-11-24T17:20:37;8.80;99.90
1129;DHT22;553;51.038;7.216;2022-11-24T17:23:04;8.80;99.90
1129;DHT22;553;51.038;7.216;2022-11-24T17:25:31;8.80;99.90
1129;DHT22;553;51.038;7.216;2022-11-24T17:27:58;8.70;99.90
1129;DHT22;553;51.038;7.216;2022-11-24T17:30:25;8.70;99.90
1129;DHT22;553;51.038;7.216;2022-11-24T17:32:51;8.60;99.90
1129;DHT22;553;51.038;7.216;2022-11-24T17:35:22;8.60;99.90
1129;DHT22;553;51.038;7.216;2022-11-24T17:37:49;8.60;99.90
1129;DHT22;553;51.038;7.216;2022-11-24T17:40:16;8.60;99.90
1129;DHT22;553;51.038;7.216;2022-11-24T17:43:00;8.60;99.90
1129;DHT22;553;51.038;7.216;2022-11-24T17:45:27;8.50;99.90
1129;DHT22;553;51.038;7.216;2022-11-24T17:47:58;8.50;99.90
1129;DHT22;553;51.038;7.216;2022-11-24T17:50:25;8.50;99.90
1129;DHT22;553;51.038;7.216;2022-11-24T17:52:52;8.40;99.90
1129;DHT22;553;51.038;7.216;2022-11-24T17:55:19;8.30;99.90
1129;DHT22;553;51.038;7.216;2022-11-24T17:57:46;8.40;99.90
1129;DHT22;553;51.038;7.216;2022-11-24T18:00:13;8.30;99.90
1129;DHT22;553;51.038;7.216;2022-11-24T18:02:40;8.30;99.90
1129;DHT22;553;51.038;7.216;2022-11-24T18:05:07;8.30;99.90
1129;DHT22;553;51.038;7.216;2022-11-24T18:07:34;8.20;99.90
1129;DHT22;553;51.038;7.216;2022-11-24T18:10:03;8.30;99.90
1129;DHT22;553;51.038;7.216;2022-11-24T18:12:29;8.30;99.90
1129;DHT22;553;51.038;7.216;2022-11-24T18:14:57;8.30;99.90
1129;DHT22;553;51.038;7.216;2022-11-24T18:17:24;8.30;99.90
1129;DHT22;553;51.038;7.216;2022-11-24T18:19:50;8.30;99.90
1129;DHT22;553;51.038;7.216;2022-11-24T18:22:17;8.30;99.90
1129;DHT22;553;51.038;7.216;2022-11-24T18:24:52;8.20;99.90
1129;DHT22;553;51.038;7.216;2022-11-24T18:27:19;8.20;99.90
1129;DHT22;553;51.038;7.216;2022-11-24T18:29:45;8.30;99.90
1129;DHT22;553;51.038;7.216;2022-11-24T18:32:18;8.20;99.90
1129;DHT22;553;51.038;7.216;2022-11-24T18:34:45;8.20;99.90
1129;DHT22;553;51.038;7.216;2022-11-24T18:37:12;8.20;99.90
1129;DHT22;553;51.038;7.216;2022-11-24T18:39:39;8.20;99.90
1129;DHT22;553;51.038;7.216;2022-11-24T18:42:09;8.20;99.90
1129;DHT22;553;51.038;7.216;2022-11-24T18:44:36;8.20;99.90